Terminal Aerodrome Forecast
Issued by NWS North Platte, NE

Home | Current Version | Previous Version | Graphics & Text | Print | Product List | Glossary On
Versions: 1 2 3 4 5 6 7 8 9 10 11 12 13 14 15 16 17
407
FTUS43 KLBF 282340
TAFVTN
TAF
KVTN 282340Z 2900/2924 07007KT P6SM -RA OVC025
     FM290900 02005KT 2SM -RA OVC015
     FM291500 02007KT P6SM OVC015
     FM292000 04008KT P6SM OVC045=

USA.gov is the U.S. government's official web portal to all federal, state and local government web resources and services.